TimeEST,TemperatureF,Dew PointF,Humidity,Sea Level PressureIn,VisibilityMPH,Wind Direction,Wind SpeedMPH,Gust SpeedMPH,PrecipitationIn,Events,Conditions,WindDirDegrees,DateUTC
12:53 AM,30.0,28.9,96,30.14,7.0,NNW,3.5,-,N/A,,Clear,330,2012-11-08 05:53:00
1:53 AM,28.0,26.1,92,30.14,5.0,NW,4.6,-,N/A,,Clear,310,2012-11-08 06:53:00
2:53 AM,28.9,27.0,92,30.15,4.0,NW,4.6,-,N/A,,Clear,310,2012-11-08 07:53:00
3:53 AM,28.0,26.1,92,30.16,4.0,Calm,Calm,-,N/A,,Clear,0,2012-11-08 08:53:00
4:11 AM,28.4,24.8,86,30.13,2.5,Calm,Calm,-,N/A,,Clear,0,2012-11-08 09:11:00
4:21 AM,28.4,26.6,93,30.13,3.0,Calm,Calm,-,N/A,,Clear,0,2012-11-08 09:21:00
4:53 AM,24.1,23.0,96,30.17,2.5,Calm,Calm,-,N/A,,Clear,0,2012-11-08 09:53:00
5:51 AM,26.6,24.8,93,30.16,1.8,WNW,3.5,-,N/A,,Clear,300,2012-11-08 10:51:00
5:53 AM,26.1,26.1,100,30.20,1.8,WNW,3.5,-,N/A,,Clear,300,2012-11-08 10:53:00
6:16 AM,24.8,23.0,93,30.16,1.2,Calm,Calm,-,N/A,,Clear,0,2012-11-08 11:16:00
6:31 AM,24.8,23.0,93,30.17,3.0,Calm,Calm,-,N/A,,Clear,0,2012-11-08 11:31:00
6:41 AM,24.8,24.8,100,30.17,1.8,Calm,Calm,-,N/A,,Clear,0,2012-11-08 11:41:00
6:46 AM,24.8,24.8,100,30.17,1.0,NW,3.5,-,N/A,,Mist,310,2012-11-08 11:46:00
6:53 AM,26.1,25.0,96,30.21,0.8,NW,4.6,-,N/A,,Clear,310,2012-11-08 11:53:00
7:04 AM,26.6,26.6,100,30.18,1.2,NW,3.5,-,N/A,,Clear,310,2012-11-08 12:04:00
7:17 AM,26.6,26.6,100,30.18,0.8,NW,4.6,-,N/A,,Clear,320,2012-11-08 12:17:00
7:53 AM,28.0,27.0,96,30.24,1.2,Variable,3.5,-,N/A,,Clear,0,2012-11-08 12:53:00
8:38 AM,30.2,30.2,100,30.21,2.0,Calm,Calm,-,N/A,,Clear,0,2012-11-08 13:38:00
8:53 AM,33.1,30.9,92,30.25,2.5,NNW,3.5,-,N/A,,Clear,340,2012-11-08 13:53:00
9:03 AM,33.8,30.2,87,30.21,3.0,NNW,3.5,-,N/A,,Clear,340,2012-11-08 14:03:00
9:53 AM,37.9,33.1,83,30.25,5.0,NNW,4.6,-,N/A,,Haze,340,2012-11-08 14:53:00
10:53 AM,42.1,30.9,65,30.25,8.0,NNW,8.1,-,N/A,,Clear,330,2012-11-08 15:53:00
11:53 AM,45.0,30.9,58,30.24,10.0,NNW,5.8,-,N/A,,Clear,340,2012-11-08 16:53:00
12:53 PM,45.0,30.9,58,30.22,9.0,North,4.6,-,N/A,,Clear,350,2012-11-08 17:53:00
1:53 PM,46.0,33.1,61,30.20,10.0,NW,4.6,-,N/A,,Partly Cloudy,320,2012-11-08 18:53:00
2:53 PM,46.9,33.1,59,30.19,10.0,NNW,4.6,-,N/A,,Scattered Clouds,330,2012-11-08 19:53:00
3:53 PM,46.9,33.1,59,30.19,10.0,NNW,4.6,-,N/A,,Clear,330,2012-11-08 20:53:00
4:53 PM,45.0,33.1,63,30.19,7.0,WNW,4.6,-,N/A,,Clear,290,2012-11-08 21:53:00
5:37 PM,41.0,32.0,70,30.16,1.8,Calm,Calm,-,N/A,,Haze,0,2012-11-08 22:37:00
5:45 PM,42.8,32.0,66,30.16,4.0,Calm,Calm,-,N/A,,Haze,0,2012-11-08 22:45:00
5:53 PM,41.0,32.0,70,30.19,9.0,Calm,Calm,-,N/A,,Clear,0,2012-11-08 22:53:00
6:53 PM,36.0,30.0,79,30.21,10.0,Calm,Calm,-,N/A,,Mostly Cloudy,0,2012-11-08 23:53:00
7:53 PM,36.0,30.9,82,30.19,7.0,Calm,Calm,-,N/A,,Mostly Cloudy,0,2012-11-09 00:53:00
8:53 PM,32.0,28.9,88,30.19,6.0,SSE,3.5,-,N/A,,Clear,150,2012-11-09 01:53:00
9:53 PM,33.1,30.0,89,30.19,6.0,Calm,Calm,-,N/A,,Clear,0,2012-11-09 02:53:00
10:53 PM,30.9,28.9,92,30.19,5.0,Calm,Calm,-,N/A,,Clear,0,2012-11-09 03:53:00
11:53 PM,30.0,27.0,88,30.19,5.0,Calm,Calm,-,N/A,,Clear,0,2012-11-09 04:53:00